Time;durP1;ratioP1;P1;durP2;ratioP2;P2;SDS_P1;SDS_P2;PMS_P1;PMS_P2;Temp;Humidity;BMP_temperature;BMP_pressure;BME280_temperature;BME280_humidity;BME280_pressure;Samples;Min_cycle;Max_cycle;Signal;HPM_P1;HPM_P2
2022/04/30 00:00:06;;;;;;;11.20;8.52;;;6.30;99.90;;;;;;5097097;28;20048;-75
2022/04/30 00:02:31;;;;;;;10.40;8.30;;;6.30;99.90;;;;;;5097255;28;20420;-75
2022/04/30 00:04:57;;;;;;;10.82;7.90;;;6.30;99.90;;;;;;5118067;27;20046;-75
2022/04/30 00:07:23;;;;;;;14.32;8.45;;;6.20;99.90;;;;;;5117837;27;20043;-75
2022/04/30 00:09:49;;;;;;;13.48;8.05;;;6.30;99.90;;;;;;5136673;27;20039;-75
2022/04/30 00:12:16;;;;;;;11.02;7.82;;;6.20;99.90;;;;;;5117868;27;20387;-75
2022/04/30 00:14:41;;;;;;;11.50;8.60;;;6.30;99.90;;;;;;5117867;27;20046;-75
2022/04/30 00:17:07;;;;;;;13.07;8.10;;;6.30;99.90;;;;;;5117255;27;20410;-75
2022/04/30 00:19:33;;;;;;;14.02;8.38;;;6.20;99.90;;;;;;5135739;27;20168;-75
2022/04/30 00:21:59;;;;;;;10.88;8.30;;;6.30;99.90;;;;;;5084081;27;20043;-74
2022/04/30 00:24:25;;;;;;;11.23;8.18;;;6.30;99.90;;;;;;5100649;27;20118;-74
2022/04/30 00:26:51;;;;;;;13.02;8.18;;;6.40;99.90;;;;;;5081286;27;20052;-75
2022/04/30 00:29:17;;;;;;;13.75;7.90;;;6.30;99.90;;;;;;5117270;27;20051;-75
2022/04/30 00:31:43;;;;;;;10.45;7.68;;;6.30;99.90;;;;;;5117512;27;20047;-75
2022/04/30 00:34:09;;;;;;;11.75;8.02;;;6.30;99.90;;;;;;5100725;27;20110;-75
2022/04/30 00:36:35;;;;;;;11.43;8.35;;;6.30;99.90;;;;;;5135329;27;20042;-75
2022/04/30 00:39:01;;;;;;;12.45;7.85;;;6.30;99.90;;;;;;5100988;27;20127;-76
2022/04/30 00:41:27;;;;;;;10.32;8.05;;;6.30;99.90;;;;;;5117231;27;20162;-75
2022/04/30 00:43:53;;;;;;;11.32;8.38;;;6.30;99.90;;;;;;5117220;27;20387;-75
2022/04/30 00:46:22;;;;;;;11.82;7.82;;;6.20;99.90;;;;;;5105310;27;20082;-75
2022/04/30 00:48:48;;;;;;;10.95;8.38;;;6.20;99.90;;;;;;5100684;27;20043;-75
2022/04/30 00:51:20;;;;;;;11.38;8.20;;;6.20;99.90;;;;;;5079725;28;20088;-76
2022/04/30 00:53:52;;;;;;;11.98;7.80;;;6.20;99.90;;;;;;5134512;27;20043;-75
2022/04/30 00:56:32;;;;;;;11.07;7.78;;;6.30;99.90;;;;;;5135238;27;20043;-75
2022/04/30 00:58:57;;;;;;;11.32;8.20;;;6.30;99.90;;;;;;5101023;27;20047;-75
2022/04/30 01:01:24;;;;;;;10.43;7.97;;;6.20;99.90;;;;;;5100174;27;20441;-75
2022/04/30 01:03:50;;;;;;;12.88;8.68;;;6.20;99.90;;;;;;5083563;27;20043;-75
2022/04/30 01:06:16;;;;;;;10.65;8.35;;;6.20;99.90;;;;;;5116650;27;20051;-75
2022/04/30 01:08:41;;;;;;;11.82;8.45;;;6.20;99.90;;;;;;5117483;27;20440;-75
2022/04/30 01:11:07;;;;;;;12.48;8.75;;;6.20;99.90;;;;;;5135426;27;20058;-75
2022/04/30 01:13:37;;;;;;;10.13;7.63;;;6.20;99.90;;;;;;5134559;27;20395;-75
2022/04/30 01:16:03;;;;;;;11.82;7.88;;;6.20;99.90;;;;;;5135006;27;20175;-76
2022/04/30 01:18:29;;;;;;;12.00;7.90;;;6.20;99.90;;;;;;5099795;27;20047;-75
2022/04/30 01:20:59;;;;;;;12.35;8.60;;;6.20;99.90;;;;;;5096325;28;20556;-75
2022/04/30 01:23:24;;;;;;;11.50;7.82;;;6.20;99.90;;;;;;5095106;28;20079;-75
2022/04/30 01:25:50;;;;;;;13.48;8.63;;;6.10;99.90;;;;;;5092947;27;20387;-75
2022/04/30 01:28:16;;;;;;;12.77;7.93;;;6.10;99.90;;;;;;5117095;27;20492;-75
2022/04/30 01:30:42;;;;;;;13.45;8.45;;;6.10;99.90;;;;;;5099211;27;20043;-75
2022/04/30 01:38:36;;;;;;;11.82;7.80;;;6.10;99.90;;;;;;5134545;27;20468;-75
2022/04/30 01:41:02;;;;;;;12.13;7.90;;;6.10;99.90;;;;;;5134865;27;20039;-75
2022/04/30 01:43:27;;;;;;;11.00;8.32;;;6.10;99.90;;;;;;5116085;27;20054;-75
2022/04/30 01:45:53;;;;;;;11.85;7.88;;;6.10;99.90;;;;;;5080367;27;20047;-75
2022/04/30 01:48:18;;;;;;;12.80;7.88;;;6.10;99.90;;;;;;5134558;27;20403;-75
2022/04/30 01:50:44;;;;;;;12.38;8.27;;;6.20;99.90;;;;;;5078402;28;20035;-75
2022/04/30 01:53:10;;;;;;;12.93;8.02;;;6.20;99.90;;;;;;5108124;27;20065;-75
2022/04/30 01:55:36;;;;;;;13.43;7.78;;;6.20;99.90;;;;;;5115815;27;20099;-75
2022/04/30 01:58:03;;;;;;;13.93;8.00;;;6.20;99.90;;;;;;5099735;27;20134;-76
2022/04/30 02:00:28;;;;;;;11.00;8.18;;;6.10;99.90;;;;;;5115713;27;20139;-75
2022/04/30 02:02:54;;;;;;;13.32;7.60;;;6.20;99.90;;;;;;5116421;27;20526;-75
2022/04/30 02:05:20;;;;;;;12.48;8.02;;;6.20;99.90;;;;;;5116311;27;20039;-75
2022/04/30 02:07:53;;;;;;;11.50;8.25;;;6.10;99.90;;;;;;5115704;27;20189;-75
2022/04/30 02:10:20;;;;;;;11.88;8.40;;;6.20;99.90;;;;;;5115993;27;20043;-75
2022/04/30 02:12:46;;;;;;;12.00;8.57;;;6.20;99.90;;;;;;5082283;27;20055;-75
2022/04/30 02:15:15;;;;;;;14.30;7.97;;;6.20;99.90;;;;;;5098760;27;20078;-75
2022/04/30 02:17:41;;;;;;;13.75;8.20;;;6.20;99.90;;;;;;5098830;27;20035;-75
2022/04/30 02:20:25;;;;;;;14.13;7.57;;;6.20;99.90;;;;;;5115944;27;20123;-75
2022/04/30 02:22:58;;;;;;;10.05;7.10;;;6.20;99.90;;;;;;5081197;28;20067;-75
2022/04/30 02:25:25;;;;;;;11.57;7.72;;;6.30;99.90;;;;;;5095690;28;20081;-74
2022/04/30 02:27:55;;;;;;;11.85;7.22;;;6.30;99.90;;;;;;5078734;28;20047;-75
2022/04/30 02:30:22;;;;;;;12.70;8.30;;;6.20;99.90;;;;;;5098822;27;20094;-75
2022/04/30 02:32:50;;;;;;;8.38;7.03;;;6.10;99.90;;;;;;5064952;27;20047;-75
2022/04/30 02:35:17;;;;;;;14.73;8.15;;;6.20;99.90;;;;;;5134132;27;20108;-75
2022/04/30 02:37:48;;;;;;;12.20;7.85;;;6.20;99.90;;;;;;5133693;27;20051;-75
2022/04/30 02:40:14;;;;;;;;;;;6.10;99.90;;;;;;5095849;28;20043;-75
2022/04/30 02:42:42;;;;;;;11.07;7.65;;;6.10;99.90;;;;;;5092428;28;19942;-75
2022/04/30 02:45:09;;;;;;;10.07;7.30;;;6.20;99.90;;;;;;5133555;27;20046;-75
2022/04/30 02:47:36;;;;;;;10.77;7.82;;;6.10;99.90;;;;;;5133271;27;20047;-76
2022/04/30 02:50:03;;;;;;;12.77;7.53;;;6.10;99.90;;;;;;5133710;27;20051;-75
2022/04/30 02:52:28;;;;;;;9.85;7.40;;;6.10;99.90;;;;;;5115048;27;20046;-79
2022/04/30 02:54:54;;;;;;;11.75;7.82;;;6.00;99.90;;;;;;5115918;27;20050;-75
2022/04/30 02:57:19;;;;;;;13.05;8.00;;;6.10;99.90;;;;;;5133678;27;20475;-75
2022/04/30 02:59:54;;;;;;;13.15;8.27;;;6.10;99.90;;;;;;5133022;27;20050;-75
2022/04/30 03:02:21;;;;;;;13.23;7.93;;;6.10;99.90;;;;;;5133072;27;20042;-75
2022/04/30 03:04:51;;;;;;;12.90;8.27;;;6.10;99.90;;;;;;5114945;27;20464;-75
2022/04/30 03:07:21;;;;;;;10.60;7.53;;;6.00;99.90;;;;;;5098722;27;20084;-75
2022/04/30 03:09:47;;;;;;;9.65;7.15;;;6.00;99.90;;;;;;5098482;27;20086;-75
2022/04/30 03:12:14;;;;;;;15.02;8.25;;;6.00;99.90;;;;;;5133480;27;20082;-74
2022/04/30 03:14:40;;;;;;;11.45;7.10;;;6.00;99.90;;;;;;5080388;28;20047;-75
2022/04/30 03:22:34;;;;;;;10.13;7.40;;;6.10;99.90;;;;;;5116872;28;20567;-75
2022/04/30 03:24:59;;;;;;;9.40;7.78;;;6.00;99.90;;;;;;5115019;28;20047;-75
2022/04/30 03:27:25;;;;;;;11.93;7.70;;;6.00;99.90;;;;;;5115077;28;20463;-75
2022/04/30 03:29:51;;;;;;;11.10;8.00;;;6.00;99.90;;;;;;5132637;28;20039;-75
2022/04/30 03:32:19;;;;;;;11.23;7.95;;;6.00;99.90;;;;;;5133471;28;20413;-75
2022/04/30 03:34:45;;;;;;;12.13;7.75;;;6.10;99.90;;;;;;5132759;28;20043;-75
2022/04/30 03:37:11;;;;;;;12.25;7.70;;;6.00;99.90;;;;;;5115902;27;20073;-75
2022/04/30 03:39:36;;;;;;;11.10;7.90;;;6.10;99.90;;;;;;5101533;27;20479;-75
2022/04/30 03:42:02;;;;;;;9.93;7.93;;;6.00;99.90;;;;;;5119306;27;20051;-75
2022/04/30 03:44:28;;;;;;;11.85;7.88;;;6.00;99.90;;;;;;5136139;27;20051;-75
2022/04/30 03:46:54;;;;;;;10.88;7.45;;;5.90;99.90;;;;;;5118162;27;20039;-75
2022/04/30 03:49:19;;;;;;;11.05;7.65;;;6.00;99.90;;;;;;5137790;27;20478;-75
2022/04/30 03:51:45;;;;;;;15.10;7.38;;;6.00;99.90;;;;;;5118702;27;20047;-75
2022/04/30 03:54:10;;;;;;;12.73;7.68;;;6.00;99.90;;;;;;5118852;27;20394;-75
2022/04/30 03:56:36;;;;;;;11.82;8.38;;;6.00;99.90;;;;;;5118391;27;20043;-75
2022/04/30 03:59:02;;;;;;;15.38;8.27;;;6.00;99.90;;;;;;5137006;27;20039;-76
2022/04/30 04:01:28;;;;;;;14.88;8.65;;;5.90;99.90;;;;;;5118528;27;20082;-75
2022/04/30 04:03:54;;;;;;;10.57;7.28;;;6.00;99.90;;;;;;5118236;27;20078;-76
2022/04/30 04:06:20;;;;;;;13.70;7.63;;;6.00;99.90;;;;;;5118580;27;20039;-75
2022/04/30 04:08:51;;;;;;;10.93;7.00;;;6.00;99.90;;;;;;5118075;27;20504;-75
2022/04/30 04:11:17;;;;;;;10.75;7.28;;;5.90;99.90;;;;;;5119513;27;20058;-74
2022/04/30 04:19:11;;;;;;;17.50;8.30;;;5.90;99.90;;;;;;5118448;27;20064;-75
2022/04/30 04:21:36;;;;;;;12.25;7.88;;;6.00;99.90;;;;;;5136341;27;20055;-75
2022/04/30 04:26:46;;;;;;;8.43;7.55;;;6.00;99.90;;;;;;5135752;27;20055;-75
2022/04/30 04:29:13;;;;;;;11.43;7.25;;;6.10;99.90;;;;;;5136167;27;20165;-75
2022/04/30 04:31:39;;;;;;;9.27;7.15;;;6.10;99.90;;;;;;5117564;27;20066;-75
2022/04/30 04:34:04;;;;;;;8.65;7.10;;;6.10;99.90;;;;;;5136075;27;20040;-74
2022/04/30 04:36:30;;;;;;;10.90;7.57;;;6.20;99.90;;;;;;5118055;27;20039;-76
2022/04/30 04:38:56;;;;;;;9.38;7.43;;;6.20;99.90;;;;;;5117541;27;20043;-76
2022/04/30 04:41:21;;;;;;;10.48;7.72;;;6.20;99.90;;;;;;5136065;27;20039;-76
2022/04/30 04:43:47;;;;;;;10.75;7.40;;;6.30;99.90;;;;;;5117276;27;20046;-75
2022/04/30 04:46:13;;;;;;;10.25;7.78;;;6.30;99.90;;;;;;5135722;27;20509;-74
2022/04/30 04:48:38;;;;;;;11.73;8.02;;;6.30;99.90;;;;;;5082664;28;20035;-75
2022/04/30 04:51:04;;;;;;;10.18;8.15;;;6.30;99.90;;;;;;5100195;27;20062;-75
2022/04/30 04:53:30;;;;;;;11.00;8.70;;;6.40;99.90;;;;;;5117024;27;20032;-74
2022/04/30 04:55:55;;;;;;;10.13;7.85;;;6.40;99.90;;;;;;5100502;27;20051;-75
2022/04/30 04:58:21;;;;;;;9.38;8.00;;;6.40;99.90;;;;;;5083505;27;20074;-76
2022/04/30 05:00:46;;;;;;;11.07;8.23;;;6.40;99.90;;;;;;5134736;27;20488;-76
2022/04/30 05:03:13;;;;;;;11.02;7.93;;;6.50;99.90;;;;;;5084495;27;20117;-75
2022/04/30 05:05:38;;;;;;;13.95;8.38;;;6.50;99.90;;;;;;5115380;27;20126;-75
2022/04/30 05:08:04;;;;;;;11.05;8.02;;;6.50;99.90;;;;;;5114754;28;20169;-75
2022/04/30 05:10:30;;;;;;;9.77;7.80;;;6.50;99.90;;;;;;5124732;27;20042;-75
2022/04/30 05:12:55;;;;;;;11.55;7.88;;;6.60;99.90;;;;;;5080716;27;20411;-76
2022/04/30 05:15:21;;;;;;;11.55;8.55;;;6.60;99.90;;;;;;5119085;27;20047;-76
2022/04/30 05:17:47;;;;;;;11.75;8.52;;;6.70;99.90;;;;;;5096662;28;20054;-80
2022/04/30 05:20:13;;;;;;;16.98;8.80;;;6.70;99.90;;;;;;5094509;28;20519;-75
2022/04/30 05:22:38;;;;;;;11.13;8.05;;;6.70;99.90;;;;;;5114787;28;20040;-76
2022/04/30 05:25:04;;;;;;;9.55;8.13;;;6.90;99.90;;;;;;5112768;28;20126;-75
2022/04/30 05:27:30;;;;;;;11.95;8.52;;;6.90;99.90;;;;;;5109308;28;20514;-75
2022/04/30 05:29:56;;;;;;;14.02;8.32;;;7.00;99.90;;;;;;5097284;28;20057;-76
2022/04/30 05:32:21;;;;;;;11.77;8.07;;;7.10;99.90;;;;;;5092917;28;20040;-74
2022/04/30 05:34:47;;;;;;;13.70;8.32;;;7.10;99.90;;;;;;5111140;28;20096;-76
2022/04/30 05:37:12;;;;;;;9.77;8.77;;;7.10;99.90;;;;;;5114067;28;20039;-74
2022/04/30 05:39:38;;;;;;;13.93;8.20;;;7.20;99.90;;;;;;5081543;28;20088;-75
2022/04/30 05:42:04;;;;;;;10.77;8.15;;;7.20;99.90;;;;;;5106736;28;20047;-74
2022/04/30 05:44:30;;;;;;;10.98;8.30;;;7.30;99.90;;;;;;5106355;28;20054;-74
2022/04/30 05:46:55;;;;;;;11.13;9.20;;;7.30;99.90;;;;;;5112847;28;20547;-74
2022/04/30 05:49:21;;;;;;;12.60;8.32;;;7.40;99.90;;;;;;5113470;28;20483;-76
2022/04/30 05:51:47;;;;;;;10.23;8.00;;;7.40;99.90;;;;;;5083348;28;20048;-75
2022/04/30 05:54:12;;;;;;;11.95;8.00;;;7.50;99.90;;;;;;5084019;28;20044;-75
2022/04/30 05:56:38;;;;;;;12.20;8.18;;;7.50;99.90;;;;;;5112033;28;20057;-75
2022/04/30 05:59:04;;;;;;;13.27;8.88;;;7.60;99.90;;;;;;5095737;28;20403;-75
2022/04/30 06:01:29;;;;;;;12.30;8.20;;;7.60;99.90;;;;;;5099770;28;20400;-79
2022/04/30 06:03:55;;;;;;;12.65;8.23;;;7.70;99.90;;;;;;5095861;28;20058;-75
2022/04/30 06:06:21;;;;;;;12.25;8.18;;;7.80;99.90;;;;;;5114074;28;20466;-75
2022/04/30 06:08:47;;;;;;;10.13;8.35;;;7.80;99.90;;;;;;5103880;28;20040;-75
2022/04/30 06:11:13;;;;;;;16.40;8.13;;;7.80;99.90;;;;;;5092219;28;20086;-75
2022/04/30 06:13:38;;;;;;;11.82;8.23;;;7.90;99.90;;;;;;5095711;28;20040;-75
2022/04/30 06:16:04;;;;;;;11.80;8.70;;;8.00;99.90;;;;;;5107636;28;20036;-75
2022/04/30 06:18:29;;;;;;;14.60;8.25;;;8.10;99.90;;;;;;5096474;28;20093;-75
2022/04/30 06:20:55;;;;;;;13.77;8.77;;;8.10;99.90;;;;;;5076418;28;20500;-81
2022/04/30 06:23:21;;;;;;;10.75;8.38;;;8.20;99.90;;;;;;5083470;28;20317;-75
2022/04/30 06:25:47;;;;;;;14.90;8.55;;;8.30;99.90;;;;;;5092327;28;20130;-75
2022/04/30 06:28:15;;;;;;;17.00;8.55;;;8.30;99.90;;;;;;5084357;28;20035;-75
2022/04/30 06:30:41;;;;;;;14.02;8.27;;;8.40;99.90;;;;;;5092872;28;20358;-75
2022/04/30 06:33:07;;;;;;;12.30;8.07;;;8.50;99.90;;;;;;5112020;28;20112;-75
2022/04/30 06:35:33;;;;;;;13.13;7.85;;;8.50;99.90;;;;;;5093694;28;20456;-76
2022/04/30 06:37:59;;;;;;;15.15;8.13;;;8.70;99.90;;;;;;5051480;28;20084;-76
2022/04/30 06:40:24;;;;;;;13.05;8.40;;;8.80;99.90;;;;;;5105318;28;20087;-76
2022/04/30 06:42:50;;;;;;;13.18;8.02;;;8.90;99.90;;;;;;5111524;28;20086;-76
2022/04/30 06:45:17;;;;;;;10.55;7.90;;;9.10;99.90;;;;;;5111164;28;20051;-76
2022/04/30 06:47:42;;;;;;;15.02;8.15;;;9.20;99.90;;;;;;5112442;28;20052;-76
2022/04/30 06:50:09;;;;;;;14.48;7.75;;;9.30;99.90;;;;;;5077367;28;20056;-75
2022/04/30 06:52:34;;;;;;;11.43;6.90;;;9.50;99.90;;;;;;5094594;28;20051;-76
2022/04/30 06:57:46;;;;;;;14.98;8.40;;;9.80;99.90;;;;;;5111236;28;20048;-76
2022/04/30 07:02:56;;;;;;;9.13;7.07;;;10.00;99.90;;;;;;5111355;28;20112;-75
2022/04/30 07:05:22;;;;;;;12.18;6.32;;;10.00;99.90;;;;;;5106443;28;20047;-75
2022/04/30 07:07:48;;;;;;;7.55;5.40;;;10.00;99.90;;;;;;5093974;28;20399;-75
2022/04/30 07:10:13;;;;;;;9.98;5.70;;;10.00;99.90;;;;;;5111059;28;20090;-75
2022/04/30 07:12:39;;;;;;;8.70;5.65;;;10.00;99.90;;;;;;5110952;28;20076;-76
2022/04/30 07:15:05;;;;;;;12.25;5.53;;;10.00;99.90;;;;;;5091301;28;20039;-75
2022/04/30 07:17:31;;;;;;;9.73;5.40;;;10.00;99.90;;;;;;5090344;28;20373;-76
2022/04/30 07:19:57;;;;;;;10.85;5.93;;;10.00;99.90;;;;;;5110328;28;20146;-75
2022/04/30 07:22:22;;;;;;;11.20;6.15;;;10.10;99.90;;;;;;5109954;28;20088;-76
2022/04/30 07:24:48;;;;;;;9.82;6.93;;;10.20;99.90;;;;;;5110467;28;20058;-76
2022/04/30 07:27:14;;;;;;;11.50;6.93;;;10.20;99.90;;;;;;5110801;28;20055;-76
2022/04/30 07:29:39;;;;;;;8.45;6.00;;;10.40;99.90;;;;;;5110427;28;20048;-75
2022/04/30 07:32:09;;;;;;;8.63;6.57;;;10.50;99.90;;;;;;5109712;28;20047;-76
2022/04/30 07:34:35;;;;;;;10.93;6.07;;;10.60;99.90;;;;;;5093213;28;20044;-76
2022/04/30 07:37:01;;;;;;;9.50;5.60;;;10.60;99.90;;;;;;5093514;28;20044;-76
2022/04/30 07:39:27;;;;;;;8.52;6.20;;;10.70;99.90;;;;;;5093181;28;20098;-75
2022/04/30 07:41:54;;;;;;;7.85;5.50;;;10.70;99.90;;;;;;5102982;28;20083;-75
2022/04/30 07:44:20;;;;;;;6.90;5.50;;;10.70;99.90;;;;;;5089212;28;20427;-76
2022/04/30 07:46:46;;;;;;;11.18;6.32;;;10.80;99.90;;;;;;5103751;28;20040;-75
2022/04/30 07:49:12;;;;;;;8.85;6.03;;;10.90;99.90;;;;;;5110662;28;20039;-76
2022/04/30 07:51:53;;;;;;;9.63;6.07;;;10.90;99.90;;;;;;5092600;28;20044;-76
2022/04/30 07:54:20;;;;;;;10.95;5.97;;;11.00;99.90;;;;;;5109695;28;20094;-76
2022/04/30 07:56:47;;;;;;;9.43;5.90;;;11.00;99.90;;;;;;5082783;28;20423;-74
2022/04/30 07:59:13;;;;;;;9.10;5.97;;;11.10;99.90;;;;;;5082711;28;20430;-77
2022/04/30 08:01:38;;;;;;;10.68;5.97;;;11.10;99.90;;;;;;5111845;28;20050;-81
2022/04/30 08:04:04;;;;;;;10.73;6.10;;;11.10;99.90;;;;;;5074713;28;20480;-75
2022/04/30 08:06:30;;;;;;;10.00;5.43;;;11.10;99.80;;;;;;5083614;28;20135;-74
2022/04/30 08:08:55;;;;;;;12.00;5.50;;;11.20;99.60;;;;;;5094578;28;20043;-74
2022/04/30 08:11:21;;;;;;;12.98;6.38;;;11.20;99.30;;;;;;5090888;28;20073;-74
2022/04/30 08:13:46;;;;;;;11.65;6.00;;;11.20;99.20;;;;;;5107119;28;20046;-74
2022/04/30 08:16:12;;;;;;;9.40;6.07;;;11.30;99.00;;;;;;5093551;28;20051;-74
2022/04/30 08:18:38;;;;;;;9.85;5.32;;;11.30;98.70;;;;;;5111389;28;20522;-74
2022/04/30 08:21:05;;;;;;;8.05;5.32;;;11.30;98.40;;;;;;5092063;28;20421;-75
2022/04/30 08:23:33;;;;;;;17.63;5.22;;;11.40;98.20;;;;;;5090409;28;20086;-75
2022/04/30 08:25:58;;;;;;;8.93;5.25;;;11.40;97.90;;;;;;5077741;28;20093;-74
2022/04/30 08:28:24;;;;;;;8.73;4.55;;;11.50;97.70;;;;;;5093807;28;20052;-74
2022/04/30 08:30:50;;;;;;;12.23;5.10;;;11.50;97.50;;;;;;5094801;28;20051;-74
2022/04/30 08:33:15;;;;;;;8.27;4.72;;;11.60;96.60;;;;;;5077306;28;20044;-74
2022/04/30 08:35:41;;;;;;;8.68;5.22;;;11.60;96.00;;;;;;5061170;28;20048;-75
2022/04/30 08:38:07;;;;;;;6.88;4.40;;;11.60;96.00;;;;;;5094818;28;20044;-74
2022/04/30 08:40:33;;;;;;;10.98;4.70;;;11.70;95.70;;;;;;5094241;28;20052;-75
2022/04/30 08:43:09;;;;;;;7.28;4.63;;;11.70;95.40;;;;;;5061071;28;20082;-74
2022/04/30 08:45:39;;;;;;;10.82;5.10;;;11.80;95.10;;;;;;5060680;28;20044;-74
2022/04/30 08:48:07;;;;;;;6.65;4.38;;;11.80;94.80;;;;;;5077707;28;20420;-75
2022/04/30 08:50:32;;;;;;;8.45;4.80;;;11.90;95.00;;;;;;5044101;28;20055;-75
2022/04/30 08:52:58;;;;;;;8.20;4.35;;;11.90;94.50;;;;;;5077239;28;20093;-74
2022/04/30 08:55:24;;;;;;;5.25;4.03;;;12.00;94.10;;;;;;5094743;28;20048;-74
2022/04/30 08:57:49;;;;;;;8.52;4.40;;;11.90;92.10;;;;;;5093874;28;20069;-74
2022/04/30 09:00:15;;;;;;;8.13;4.25;;;12.00;92.20;;;;;;5076754;28;20051;-75
2022/04/30 09:02:52;;;;;;;8.20;3.88;;;12.00;92.40;;;;;;5111051;28;20411;-74
2022/04/30 09:05:17;;;;;;;7.65;3.90;;;12.20;90.70;;;;;;5093587;28;20067;-75
2022/04/30 09:07:52;;;;;;;8.65;4.30;;;12.20;91.30;;;;;;5043830;28;20036;-74
2022/04/30 09:10:21;;;;;;;5.82;3.70;;;12.30;89.10;;;;;;5076858;28;20070;-75
2022/04/30 09:12:47;;;;;;;6.10;3.70;;;12.30;90.50;;;;;;5060435;28;20402;-74
2022/04/30 09:15:14;;;;;;;8.13;4.05;;;12.30;90.30;;;;;;5093775;28;20040;-75
2022/04/30 09:17:40;;;;;;;8.80;3.70;;;12.40;90.50;;;;;;5059978;28;20120;-75
2022/04/30 09:20:06;;;;;;;4.30;3.40;;;12.50;89.80;;;;;;5076543;28;20055;-78
2022/04/30 09:22:33;;;;;;;5.22;3.78;;;12.50;86.50;;;;;;5093321;28;20048;-75
2022/04/30 09:25:00;;;;;;;6.00;3.85;;;12.50;85.60;;;;;;5060286;28;20048;-74
2022/04/30 09:27:26;;;;;;;6.05;4.00;;;12.60;87.60;;;;;;5076482;28;20403;-75
2022/04/30 09:29:52;;;;;;;5.68;3.72;;;12.60;86.10;;;;;;5093652;28;20044;-75
2022/04/30 09:32:22;;;;;;;6.53;4.18;;;12.50;85.50;;;;;;5076516;28;20494;-79
2022/04/30 09:37:41;;;;;;;6.25;3.72;;;12.60;86.90;;;;;;5078854;28;20048;-75
2022/04/30 09:40:19;;;;;;;5.90;3.70;;;12.60;85.90;;;;;;5094390;28;20043;-75
2022/04/30 09:42:48;;;;;;;7.53;3.90;;;12.60;86.00;;;;;;5093366;28;20548;-75
2022/04/30 09:45:23;;;;;;;7.47;4.40;;;12.70;86.30;;;;;;5060565;28;20052;-74
2022/04/30 09:47:48;;;;;;;6.57;4.13;;;12.80;85.30;;;;;;5093335;28;20044;-74
2022/04/30 09:55:42;;;;;;;6.20;4.00;;;12.70;84.00;;;;;;5064158;28;20052;-75
2022/04/30 09:58:08;;;;;;;5.25;3.55;;;12.60;82.30;;;;;;5059173;28;20044;-75
2022/04/30 10:00:33;;;;;;;7.65;3.70;;;12.50;83.00;;;;;;5058915;28;20050;-74
2022/04/30 10:03:02;;;;;;;5.82;4.35;;;12.50;83.40;;;;;;5076109;28;20138;-74
2022/04/30 10:05:37;;;;;;;9.88;4.10;;;12.60;83.10;;;;;;5075680;28;20427;-74
2022/04/30 10:08:03;;;;;;;9.07;3.83;;;12.50;84.10;;;;;;5092735;28;20048;-75
2022/04/30 10:10:33;;;;;;;4.80;3.80;;;12.60;83.40;;;;;;5092148;28;20434;-74
2022/04/30 10:13:31;;;;;;;5.20;3.78;;;12.60;83.40;;;;;;5059449;28;20445;-74
2022/04/30 10:15:57;;;;;;;4.60;3.42;;;12.70;79.50;;;;;;5101622;28;20063;-75
2022/04/30 10:18:41;;;;;;;5.65;3.63;;;12.60;81.00;;;;;;5059350;28;20040;-74
2022/04/30 10:21:16;;;;;;;5.93;3.90;;;12.70;80.10;;;;;;5076146;28;20423;-75
2022/04/30 10:23:42;;;;;;;7.00;4.07;;;12.70;79.60;;;;;;5092213;28;20063;-74
2022/04/30 10:26:08;;;;;;;6.43;3.67;;;12.80;79.70;;;;;;5058957;28;20048;-75
2022/04/30 10:28:33;;;;;;;4.65;3.40;;;12.70;79.50;;;;;;5058528;28;20040;-74
2022/04/30 10:31:04;;;;;;;6.80;3.67;;;12.70;79.70;;;;;;5093436;28;20051;-74
2022/04/30 10:33:31;;;;;;;10.07;4.20;;;12.70;80.10;;;;;;5091712;28;20052;-74
2022/04/30 10:36:07;;;;;;;5.88;4.78;;;12.70;81.30;;;;;;5042306;28;20089;-74
2022/04/30 10:38:32;;;;;;;4.80;4.30;;;12.70;82.00;;;;;;5075013;28;20055;-75
2022/04/30 10:40:59;;;;;;;7.85;4.30;;;12.70;82.50;;;;;;5058696;28;20040;-74
2022/04/30 10:43:26;;;;;;;6.88;4.00;;;12.80;81.90;;;;;;5075275;28;20059;-73
2022/04/30 10:45:56;;;;;;;6.22;4.22;;;12.80;81.00;;;;;;5091978;28;20106;-74
2022/04/30 10:48:21;;;;;;;5.90;4.40;;;12.80;81.70;;;;;;5091418;28;20048;-74
2022/04/30 10:50:48;;;;;;;5.30;4.03;;;12.80;81.00;;;;;;5092681;28;20054;-74
2022/04/30 10:53:14;;;;;;;7.05;4.93;;;12.70;80.80;;;;;;5091826;28;20044;-74
2022/04/30 10:55:40;;;;;;;8.15;4.90;;;12.70;80.80;;;;;;5074618;28;20048;-74
2022/04/30 10:58:05;;;;;;;5.47;4.93;;;12.60;81.20;;;;;;5058307;28;20395;-74
2022/04/30 11:00:31;;;;;;;6.85;4.50;;;12.60;82.40;;;;;;5074721;28;20047;-74
2022/04/30 11:03:08;;;;;;;7.47;4.65;;;12.60;83.60;;;;;;5092113;28;20051;-74
2022/04/30 11:05:33;;;;;;;5.65;4.35;;;12.50;83.20;;;;;;5091544;28;20467;-78
2022/04/30 11:08:05;;;;;;;7.43;5.00;;;12.50;84.80;;;;;;5059513;28;20048;-75
2022/04/30 11:10:31;;;;;;;7.32;4.82;;;12.40;85.40;;;;;;5091673;28;20062;-80
2022/04/30 11:13:06;;;;;;;5.97;4.63;;;12.40;86.40;;;;;;5074916;28;20123;-77
2022/04/30 11:15:32;;;;;;;5.80;5.30;;;12.40;84.90;;;;;;5057910;28;20050;-78
2022/04/30 11:17:59;;;;;;;7.78;5.18;;;12.40;86.10;;;;;;5074919;28;20144;-78
2022/04/30 11:20:25;;;;;;;7.63;4.63;;;12.40;86.60;;;;;;5091026;28;20074;-76
2022/04/30 11:22:52;;;;;;;9.02;4.90;;;12.40;86.80;;;;;;5091292;28;20127;-77
2022/04/30 11:25:18;;;;;;;7.28;4.88;;;12.50;86.70;;;;;;5075039;28;20433;-76
2022/04/30 11:27:44;;;;;;;6.85;4.97;;;12.50;86.80;;;;;;5074347;28;20048;-78
2022/04/30 11:30:10;;;;;;;5.63;4.75;;;12.50;86.10;;;;;;5092554;28;20126;-78
2022/04/30 11:32:36;;;;;;;7.07;4.85;;;12.50;85.50;;;;;;5074200;28;20052;-76
2022/04/30 11:35:04;;;;;;;8.25;4.47;;;12.50;85.90;;;;;;5074559;28;20438;-83
2022/04/30 11:37:40;;;;;;;5.10;3.72;;;12.50;86.60;;;;;;5074503;28;20044;-80
2022/04/30 11:40:06;;;;;;;4.90;3.22;;;12.50;85.00;;;;;;5041563;28;20070;-76
2022/04/30 11:42:32;;;;;;;5.38;3.15;;;12.50;83.60;;;;;;5058025;28;20110;-77
2022/04/30 11:44:57;;;;;;;4.38;3.25;;;12.50;82.10;;;;;;5057427;28;20047;-77
2022/04/30 11:47:23;;;;;;;6.78;3.95;;;12.40;81.20;;;;;;5074616;28;20048;-77
2022/04/30 11:49:49;;;;;;;6.07;4.00;;;12.40;81.80;;;;;;5074127;28;20048;-76
2022/04/30 11:52:14;;;;;;;6.70;4.40;;;12.30;82.80;;;;;;5074545;28;20360;-77
2022/04/30 11:54:41;;;;;;;5.00;3.75;;;12.30;84.10;;;;;;5074177;28;20426;-78
2022/04/30 11:57:07;;;;;;;7.75;4.35;;;12.20;85.00;;;;;;5058163;28;20056;-77
2022/04/30 11:59:38;;;;;;;8.70;4.15;;;12.30;84.90;;;;;;5077594;28;20077;-77
2022/04/30 12:02:11;;;;;;;7.13;4.53;;;12.30;84.50;;;;;;5045454;28;20087;-77
2022/04/30 12:04:41;;;;;;;9.75;4.32;;;12.40;85.60;;;;;;5078384;28;20036;-76
2022/04/30 12:07:07;;;;;;;7.65;4.10;;;12.50;85.60;;;;;;5062449;28;20051;-78
2022/04/30 12:09:35;;;;;;;6.88;3.97;;;12.50;85.70;;;;;;5078448;28;20059;-76
2022/04/30 12:12:01;;;;;;;7.25;4.05;;;12.50;84.80;;;;;;5045165;28;20040;-78
2022/04/30 12:14:27;;;;;;;8.20;3.72;;;12.50;85.10;;;;;;5094790;28;20047;-75
2022/04/30 12:16:53;;;;;;;7.25;4.10;;;12.50;84.20;;;;;;5094641;28;20051;-75
2022/04/30 12:25:09;;;;;;;6.80;4.65;;;12.60;85.10;;;;;;5115755;28;20051;-74
2022/04/30 12:27:36;;;;;;;5.18;3.80;;;12.60;85.90;;;;;;5098219;28;20043;-75
2022/04/30 12:30:12;;;;;;;5.53;4.30;;;12.50;84.90;;;;;;5080786;28;20420;-75
2022/04/30 12:32:50;;;;;;;8.50;5.75;;;12.60;84.20;;;;;;5099269;28;20082;-75
2022/04/30 12:35:23;;;;;;;5.88;4.13;;;12.50;83.90;;;;;;5098096;28;20047;-75
2022/04/30 12:37:49;;;;;;;6.38;4.35;;;12.50;85.10;;;;;;5097464;28;20048;-75
2022/04/30 12:40:15;;;;;;;7.45;4.20;;;12.50;85.60;;;;;;5097359;28;20082;-74
2022/04/30 12:42:41;;;;;;;6.40;4.28;;;12.40;85.00;;;;;;5097345;28;20393;-75
2022/04/30 12:45:07;;;;;;;6.57;4.53;;;12.40;85.20;;;;;;5079902;28;20519;-74
2022/04/30 12:47:32;;;;;;;9.70;4.47;;;12.40;85.20;;;;;;5131695;27;20051;-75
2022/04/30 12:49:58;;;;;;;8.35;4.63;;;12.40;85.30;;;;;;5097271;28;20044;-74
2022/04/30 12:52:25;;;;;;;6.80;4.25;;;12.40;85.50;;;;;;5115181;28;20040;-75
2022/04/30 12:54:50;;;;;;;7.82;4.30;;;12.50;86.40;;;;;;5096771;28;20087;-74
2022/04/30 12:57:16;;;;;;;8.35;4.45;;;12.50;86.20;;;;;;5097341;28;20151;-75
2022/04/30 12:59:42;;;;;;;7.10;4.75;;;12.50;85.60;;;;;;5097258;28;20440;-74
2022/04/30 13:02:08;;;;;;;9.63;4.53;;;12.50;85.00;;;;;;5114761;28;20126;-74
2022/04/30 13:04:35;;;;;;;7.70;4.85;;;12.50;85.00;;;;;;5096795;28;20122;-74
2022/04/30 13:07:00;;;;;;;7.00;4.78;;;12.50;84.30;;;;;;5079813;28;20057;-75
2022/04/30 13:14:54;;;;;;;7.13;4.93;;;12.60;82.10;;;;;;5114536;28;20089;-75
2022/04/30 13:17:20;;;;;;;5.43;4.40;;;12.60;82.50;;;;;;5096892;28;20043;-74
2022/04/30 13:19:46;;;;;;;6.88;4.47;;;12.60;82.70;;;;;;5079773;28;20054;-74
2022/04/30 13:22:11;;;;;;;7.03;4.57;;;12.70;82.20;;;;;;5114781;28;20055;-74
2022/04/30 13:24:37;;;;;;;7.90;4.70;;;12.70;82.10;;;;;;5080246;28;20044;-75
2022/04/30 13:27:03;;;;;;;10.65;5.13;;;12.80;82.30;;;;;;5114524;28;20035;-75
2022/04/30 13:29:28;;;;;;;8.38;4.93;;;12.90;81.50;;;;;;5131124;27;20391;-75